sensor_id;sensor_type;location;lat;lon;timestamp;pressure;altitude;pressure_sealevel;temperature;humidity
34243;BME280;20504;43.214;27.920;2023-05-03T00:00:54;101051.97;;;16.33;100.00
34243;BME280;20504;43.214;27.920;2023-05-03T00:03:20;101035.28;;;16.75;100.00
34243;BME280;20504;43.214;27.920;2023-05-03T00:05:49;101069.63;;;16.25;100.00
34243;BME280;20504;43.214;27.920;2023-05-03T00:08:15;101084.47;;;16.18;100.00
34243;BME280;20504;43.214;27.920;2023-05-03T00:10:41;101098.69;;;16.29;100.00
34243;BME280;20504;43.214;27.920;2023-05-03T00:13:06;101102.09;;;16.20;100.00
34243;BME280;20504;43.214;27.920;2023-05-03T00:15:32;101113.91;;;16.29;100.00
34243;BME280;20504;43.214;27.920;2023-05-03T00:17:57;101064.06;;;16.93;100.00
34243;BME280;20504;43.214;27.920;2023-05-03T00:20:23;101080.69;;;17.08;100.00
34243;BME280;20504;43.214;27.920;2023-05-03T00:22:49;101102.75;;;17.12;100.00
34243;BME280;20504;43.214;27.920;2023-05-03T00:25:15;101130.16;;;17.04;100.00
34243;BME280;20504;43.214;27.920;2023-05-03T00:27:41;101172.66;;;17.09;100.00
34243;BME280;20504;43.214;27.920;2023-05-03T00:30:07;101192.66;;;17.05;100.00
34243;BME280;20504;43.214;27.920;2023-05-03T00:32:33;101227.13;;;16.98;100.00
34243;BME280;20504;43.214;27.920;2023-05-03T00:34:59;101246.50;;;17.02;100.00
34243;BME280;20504;43.214;27.920;2023-05-03T00:37:24;101277.66;;;16.91;100.00
34243;BME280;20504;43.214;27.920;2023-05-03T00:39:51;101306.41;;;16.89;100.00
34243;BME280;20504;43.214;27.920;2023-05-03T00:42:16;101329.19;;;16.84;100.00
34243;BME280;20504;43.214;27.920;2023-05-03T00:44:42;101364.66;;;16.63;100.00
34243;BME280;20504;43.214;27.920;2023-05-03T00:47:07;101389.28;;;16.69;100.00
34243;BME280;20504;43.214;27.920;2023-05-03T00:49:33;101413.22;;;16.83;100.00
34243;BME280;20504;43.214;27.920;2023-05-03T00:52:00;101443.06;;;16.65;100.00
34243;BME280;20504;43.214;27.920;2023-05-03T00:54:26;101437.75;;;16.53;100.00
34243;BME280;20504;43.214;27.920;2023-05-03T00:56:52;101437.16;;;16.49;100.00
34243;BME280;20504;43.214;27.920;2023-05-03T00:59:19;101466.44;;;16.63;100.00
34243;BME280;20504;43.214;27.920;2023-05-03T01:01:50;101465.69;;;16.61;100.00
34243;BME280;20504;43.214;27.920;2023-05-03T01:04:16;101471.72;;;16.52;100.00
34243;BME280;20504;43.214;27.920;2023-05-03T01:09:35;101464.72;;;16.62;100.00
34243;BME280;20504;43.214;27.920;2023-05-03T01:17:14;101464.97;;;16.59;100.00
34243;BME280;20504;43.214;27.920;2023-05-03T01:19:44;101460.75;;;16.44;100.00
34243;BME280;20504;43.214;27.920;2023-05-03T01:22:36;101458.19;;;16.43;100.00
34243;BME280;20504;43.214;27.920;2023-05-03T01:25:07;101460.50;;;16.47;100.00
34243;BME280;20504;43.214;27.920;2023-05-03T01:27:34;101435.50;;;16.35;100.00
34243;BME280;20504;43.214;27.920;2023-05-03T01:30:01;101452.72;;;16.44;100.00
34243;BME280;20504;43.214;27.920;2023-05-03T01:32:35;101454.22;;;16.35;100.00
34243;BME280;20504;43.214;27.920;2023-05-03T01:35:10;101457.09;;;16.45;100.00
34243;BME280;20504;43.214;27.920;2023-05-03T01:37:36;101452.22;;;16.39;100.00
34243;BME280;20504;43.214;27.920;2023-05-03T01:40:03;101440.22;;;16.32;100.00
34243;BME280;20504;43.214;27.920;2023-05-03T01:45:43;101455.00;;;16.38;100.00
34243;BME280;20504;43.214;27.920;2023-05-03T01:48:19;101440.44;;;16.29;100.00
34243;BME280;20504;43.214;27.920;2023-05-03T01:50:44;101441.19;;;16.31;100.00
34243;BME280;20504;43.214;27.920;2023-05-03T01:53:10;101445.47;;;16.33;100.00
34243;BME280;20504;43.214;27.920;2023-05-03T01:55:35;101447.47;;;16.19;100.00
34243;BME280;20504;43.214;27.920;2023-05-03T01:58:01;101441.53;;;16.26;100.00
34243;BME280;20504;43.214;27.920;2023-05-03T02:00:27;101432.06;;;16.33;100.00
34243;BME280;20504;43.214;27.920;2023-05-03T02:02:52;101432.88;;;16.23;100.00
34243;BME280;20504;43.214;27.920;2023-05-03T02:05:18;101439.44;;;16.19;100.00
34243;BME280;20504;43.214;27.920;2023-05-03T02:07:43;101434.63;;;16.11;100.00
34243;BME280;20504;43.214;27.920;2023-05-03T02:10:09;101442.13;;;16.19;100.00
34243;BME280;20504;43.214;27.920;2023-05-03T02:12:39;101443.00;;;16.07;100.00
34243;BME280;20504;43.214;27.920;2023-05-03T02:15:06;101414.16;;;16.23;100.00
34243;BME280;20504;43.214;27.920;2023-05-03T02:17:31;101401.75;;;16.22;100.00
34243;BME280;20504;43.214;27.920;2023-05-03T02:19:58;101406.91;;;16.36;100.00
34243;BME280;20504;43.214;27.920;2023-05-03T02:22:23;101391.03;;;16.22;100.00
34243;BME280;20504;43.214;27.920;2023-05-03T02:24:49;101392.44;;;16.15;100.00
34243;BME280;20504;43.214;27.920;2023-05-03T02:27:15;101397.78;;;16.15;100.00
34243;BME280;20504;43.214;27.920;2023-05-03T02:29:40;101381.72;;;16.15;100.00
34243;BME280;20504;43.214;27.920;2023-05-03T02:32:05;101371.38;;;16.10;100.00
34243;BME280;20504;43.214;27.920;2023-05-03T02:34:31;101378.09;;;16.16;100.00
34243;BME280;20504;43.214;27.920;2023-05-03T02:36:57;101382.66;;;16.26;100.00
34243;BME280;20504;43.214;27.920;2023-05-03T02:39:22;101360.44;;;16.13;100.00
34243;BME280;20504;43.214;27.920;2023-05-03T02:41:48;101354.97;;;16.15;100.00
34243;BME280;20504;43.214;27.920;2023-05-03T02:44:13;101336.25;;;16.15;100.00
34243;BME280;20504;43.214;27.920;2023-05-03T02:46:39;101341.72;;;16.13;100.00
34243;BME280;20504;43.214;27.920;2023-05-03T02:49:06;101325.53;;;16.15;100.00
34243;BME280;20504;43.214;27.920;2023-05-03T02:51:32;101299.84;;;16.12;100.00
34243;BME280;20504;43.214;27.920;2023-05-03T02:53:57;101310.81;;;16.09;100.00
34243;BME280;20504;43.214;27.920;2023-05-03T02:56:23;101304.09;;;16.03;100.00
34243;BME280;20504;43.214;27.920;2023-05-03T02:58:53;101310.91;;;16.08;100.00
34243;BME280;20504;43.214;27.920;2023-05-03T03:01:19;101295.25;;;16.14;100.00
34243;BME280;20504;43.214;27.920;2023-05-03T03:03:45;101273.50;;;16.19;100.00
34243;BME280;20504;43.214;27.920;2023-05-03T03:06:10;101272.91;;;16.26;100.00
34243;BME280;20504;43.214;27.920;2023-05-03T03:08:36;101262.63;;;16.44;100.00
34243;BME280;20504;43.214;27.920;2023-05-03T03:11:03;101280.31;;;16.23;100.00
34243;BME280;20504;43.214;27.920;2023-05-03T03:13:29;101247.72;;;16.29;100.00
34243;BME280;20504;43.214;27.920;2023-05-03T03:15:54;101267.06;;;16.32;100.00
34243;BME280;20504;43.214;27.920;2023-05-03T03:18:19;101247.53;;;16.43;100.00
34243;BME280;20504;43.214;27.920;2023-05-03T03:20:45;101242.41;;;16.51;100.00
34243;BME280;20504;43.214;27.920;2023-05-03T03:23:11;101245.56;;;16.45;100.00
34243;BME280;20504;43.214;27.920;2023-05-03T03:25:37;101236.56;;;16.46;100.00
34243;BME280;20504;43.214;27.920;2023-05-03T03:28:02;101218.94;;;16.44;100.00
34243;BME280;20504;43.214;27.920;2023-05-03T03:30:28;101229.28;;;16.59;100.00
34243;BME280;20504;43.214;27.920;2023-05-03T03:32:54;101226.50;;;16.61;100.00
34243;BME280;20504;43.214;27.920;2023-05-03T03:35:20;101239.31;;;16.69;100.00
34243;BME280;20504;43.214;27.920;2023-05-03T03:37:46;101223.56;;;16.64;100.00
34243;BME280;20504;43.214;27.920;2023-05-03T03:40:11;101242.72;;;16.71;100.00
34243;BME280;20504;43.214;27.920;2023-05-03T03:42:38;101245.66;;;16.79;100.00
34243;BME280;20504;43.214;27.920;2023-05-03T03:45:05;101259.75;;;16.70;100.00
34243;BME280;20504;43.214;27.920;2023-05-03T03:47:30;101265.50;;;16.76;100.00
34243;BME280;20504;43.214;27.920;2023-05-03T03:49:56;101265.63;;;16.97;100.00
34243;BME280;20504;43.214;27.920;2023-05-03T03:52:21;101248.31;;;16.90;100.00
34243;BME280;20504;43.214;27.920;2023-05-03T03:54:47;101257.47;;;16.99;100.00
34243;BME280;20504;43.214;27.920;2023-05-03T03:57:12;101265.72;;;17.07;100.00
34243;BME280;20504;43.214;27.920;2023-05-03T03:59:38;101262.19;;;17.06;100.00
34243;BME280;20504;43.214;27.920;2023-05-03T04:02:03;101285.34;;;17.18;100.00
34243;BME280;20504;43.214;27.920;2023-05-03T04:04:28;101256.09;;;17.26;100.00
34243;BME280;20504;43.214;27.920;2023-05-03T04:06:55;101275.81;;;17.25;100.00
34243;BME280;20504;43.214;27.920;2023-05-03T04:09:21;101279.38;;;17.15;100.00
34243;BME280;20504;43.214;27.920;2023-05-03T04:11:46;101279.47;;;17.24;100.00
34243;BME280;20504;43.214;27.920;2023-05-03T04:14:12;101302.63;;;17.37;100.00
34243;BME280;20504;43.214;27.920;2023-05-03T04:16:37;101316.63;;;17.40;100.00
34243;BME280;20504;43.214;27.920;2023-05-03T04:19:02;101332.13;;;17.48;100.00
34243;BME280;20504;43.214;27.920;2023-05-03T04:21:28;101350.91;;;17.48;100.00
34243;BME280;20504;43.214;27.920;2023-05-03T04:23:54;101370.63;;;17.47;100.00
34243;BME280;20504;43.214;27.920;2023-05-03T04:26:19;101380.63;;;17.56;100.00
34243;BME280;20504;43.214;27.920;2023-05-03T04:29:01;101393.94;;;17.69;100.00
34243;BME280;20504;43.214;27.920;2023-05-03T04:31:26;101403.66;;;17.81;100.00
34243;BME280;20504;43.214;27.920;2023-05-03T04:33:52;101429.06;;;17.88;100.00
34243;BME280;20504;43.214;27.920;2023-05-03T04:36:17;101451.97;;;17.92;100.00
34243;BME280;20504;43.214;27.920;2023-05-03T04:38:43;101481.16;;;17.85;100.00
34243;BME280;20504;43.214;27.920;2023-05-03T04:41:09;101490.03;;;18.08;100.00
34243;BME280;20504;43.214;27.920;2023-05-03T04:43:35;101521.97;;;18.11;100.00
34243;BME280;20504;43.214;27.920;2023-05-03T04:46:01;101546.75;;;18.15;100.00
34243;BME280;20504;43.214;27.920;2023-05-03T04:48:30;101580.66;;;18.38;100.00
34243;BME280;20504;43.214;27.920;2023-05-03T04:50:56;101590.78;;;18.35;100.00
34243;BME280;20504;43.214;27.920;2023-05-03T04:53:22;101619.75;;;18.42;100.00
34243;BME280;20504;43.214;27.920;2023-05-03T04:55:47;101660.50;;;18.25;100.00
34243;BME280;20504;43.214;27.920;2023-05-03T04:58:13;101683.47;;;18.52;100.00
34243;BME280;20504;43.214;27.920;2023-05-03T05:00:40;101710.94;;;18.55;100.00
34243;BME280;20504;43.214;27.920;2023-05-03T05:03:06;101749.03;;;18.49;100.00
34243;BME280;20504;43.214;27.920;2023-05-03T05:05:32;101789.94;;;18.53;100.00
34243;BME280;20504;43.214;27.920;2023-05-03T05:07:58;101838.25;;;18.30;100.00
34243;BME280;20504;43.214;27.920;2023-05-03T05:10:23;101875.78;;;18.43;100.00
34243;BME280;20504;43.214;27.920;2023-05-03T05:12:49;101899.00;;;18.79;100.00
34243;BME280;20504;43.214;27.920;2023-05-03T05:15:15;101916.22;;;18.88;100.00
34243;BME280;20504;43.214;27.920;2023-05-03T05:17:40;101939.72;;;18.97;100.00
34243;BME280;20504;43.214;27.920;2023-05-03T05:20:06;102000.31;;;18.90;100.00
34243;BME280;20504;43.214;27.920;2023-05-03T05:22:39;102032.63;;;18.77;100.00
34243;BME280;20504;43.214;27.920;2023-05-03T05:25:05;102063.50;;;18.71;100.00
34243;BME280;20504;43.214;27.920;2023-05-03T05:27:31;102092.53;;;18.79;100.00
34243;BME280;20504;43.214;27.920;2023-05-03T05:29:57;102099.88;;;18.88;100.00
34243;BME280;20504;43.214;27.920;2023-05-03T05:32:22;102156.25;;;18.77;100.00
34243;BME280;20504;43.214;27.920;2023-05-03T05:34:48;102176.66;;;18.92;100.00
34243;BME280;20504;43.214;27.920;2023-05-03T05:37:22;102178.47;;;18.92;100.00
34243;BME280;20504;43.214;27.920;2023-05-03T05:39:48;102183.97;;;19.14;100.00
34243;BME280;20504;43.214;27.920;2023-05-03T05:42:13;102211.44;;;19.06;100.00
34243;BME280;20504;43.214;27.920;2023-05-03T05:44:40;102234.91;;;19.28;100.00
34243;BME280;20504;43.214;27.920;2023-05-03T05:47:06;102246.50;;;19.42;100.00
34243;BME280;20504;43.214;27.920;2023-05-03T05:49:31;102272.41;;;19.55;100.00
34243;BME280;20504;43.214;27.920;2023-05-03T05:51:57;102317.91;;;19.71;100.00
34243;BME280;20504;43.214;27.920;2023-05-03T05:54:23;102345.22;;;19.78;100.00
34243;BME280;20504;43.214;27.920;2023-05-03T05:56:48;102382.34;;;19.36;100.00
34243;BME280;20504;43.214;27.920;2023-05-03T05:59:14;102411.38;;;19.31;100.00
34243;BME280;20504;43.214;27.920;2023-05-03T06:01:40;102416.25;;;19.39;100.00
34243;BME280;20504;43.214;27.920;2023-05-03T06:04:09;102420.44;;;19.43;100.00
34243;BME280;20504;43.214;27.920;2023-05-03T06:06:34;102413.97;;;19.45;100.00
34243;BME280;20504;43.214;27.920;2023-05-03T06:09:01;102433.97;;;18.77;100.00
34243;BME280;20504;43.214;27.920;2023-05-03T06:11:26;102415.94;;;19.18;100.00
34243;BME280;20504;43.214;27.920;2023-05-03T06:13:52;102423.91;;;19.19;100.00
34243;BME280;20504;43.214;27.920;2023-05-03T06:16:17;102433.66;;;19.33;100.00
34243;BME280;20504;43.214;27.920;2023-05-03T06:18:43;102434.28;;;19.49;100.00
34243;BME280;20504;43.214;27.920;2023-05-03T06:21:08;102447.34;;;19.30;100.00
34243;BME280;20504;43.214;27.920;2023-05-03T06:23:35;102467.03;;;19.30;100.00
34243;BME280;20504;43.214;27.920;2023-05-03T06:26:02;102460.81;;;19.55;100.00
34243;BME280;20504;43.214;27.920;2023-05-03T06:28:27;102475.53;;;19.62;100.00
34243;BME280;20504;43.214;27.920;2023-05-03T06:30:53;102502.50;;;19.99;100.00
34243;BME280;20504;43.214;27.920;2023-05-03T06:33:18;102513.88;;;20.15;100.00
34243;BME280;20504;43.214;27.920;2023-05-03T06:35:44;102545.31;;;20.27;100.00
34243;BME280;20504;43.214;27.920;2023-05-03T06:38:11;102567.13;;;20.12;100.00
34243;BME280;20504;43.214;27.920;2023-05-03T06:40:37;102570.41;;;20.28;100.00
34243;BME280;20504;43.214;27.920;2023-05-03T06:43:02;102614.16;;;20.32;100.00
34243;BME280;20504;43.214;27.920;2023-05-03T06:45:28;102647.75;;;20.39;100.00
34243;BME280;20504;43.214;27.920;2023-05-03T06:47:53;102643.72;;;19.57;100.00
34243;BME280;20504;43.214;27.920;2023-05-03T06:50:22;102605.75;;;19.22;100.00
34243;BME280;20504;43.214;27.920;2023-05-03T06:52:54;102589.63;;;19.34;100.00
34243;BME280;20504;43.214;27.920;2023-05-03T06:55:22;102581.63;;;19.33;100.00
34243;BME280;20504;43.214;27.920;2023-05-03T06:57:47;102562.06;;;19.44;100.00
34243;BME280;20504;43.214;27.920;2023-05-03T07:00:13;102614.66;;;19.75;100.00
34243;BME280;20504;43.214;27.920;2023-05-03T07:02:40;102634.38;;;19.75;100.00
34243;BME280;20504;43.214;27.920;2023-05-03T07:05:05;102609.78;;;20.05;100.00
34243;BME280;20504;43.214;27.920;2023-05-03T07:07:32;102603.00;;;19.87;100.00
34243;BME280;20504;43.214;27.920;2023-05-03T07:09:57;102603.91;;;19.75;100.00
34243;BME280;20504;43.214;27.920;2023-05-03T07:12:23;102611.81;;;20.27;100.00
34243;BME280;20504;43.214;27.920;2023-05-03T07:14:53;102610.72;;;20.30;100.00
34243;BME280;20504;43.214;27.920;2023-05-03T07:17:18;102624.38;;;20.26;100.00
34243;BME280;20504;43.214;27.920;2023-05-03T07:19:44;102644.56;;;20.46;100.00
34243;BME280;20504;43.214;27.920;2023-05-03T07:22:10;102664.41;;;20.45;100.00
34243;BME280;20504;43.214;27.920;2023-05-03T07:24:36;102656.81;;;20.87;100.00
34243;BME280;20504;43.214;27.920;2023-05-03T07:27:02;102664.09;;;20.74;100.00
34243;BME280;20504;43.214;27.920;2023-05-03T07:29:27;102668.50;;;20.75;100.00
34243;BME280;20504;43.214;27.920;2023-05-03T07:31:53;102667.72;;;20.49;100.00
34243;BME280;20504;43.214;27.920;2023-05-03T07:34:18;102680.88;;;20.41;100.00
34243;BME280;20504;43.214;27.920;2023-05-03T07:36:44;102689.59;;;20.57;100.00
34243;BME280;20504;43.214;27.920;2023-05-03T07:39:09;102693.16;;;20.45;100.00
34243;BME280;20504;43.214;27.920;2023-05-03T07:41:35;102704.78;;;20.58;100.00
34243;BME280;20504;43.214;27.920;2023-05-03T07:44:01;102714.38;;;20.62;100.00
34243;BME280;20504;43.214;27.920;2023-05-03T07:46:26;102713.50;;;20.98;100.00
34243;BME280;20504;43.214;27.920;2023-05-03T07:48:52;102730.00;;;21.06;100.00
34243;BME280;20504;43.214;27.920;2023-05-03T07:51:17;102739.31;;;21.02;100.00
34243;BME280;20504;43.214;27.920;2023-05-03T07:53:42;102741.38;;;21.23;100.00
34243;BME280;20504;43.214;27.920;2023-05-03T07:56:08;102755.44;;;21.15;100.00
34243;BME280;20504;43.214;27.920;2023-05-03T07:58:34;102777.75;;;21.17;100.00
34243;BME280;20504;43.214;27.920;2023-05-03T08:00:59;102783.22;;;21.41;100.00
34243;BME280;20504;43.214;27.920;2023-05-03T08:03:25;102804.88;;;21.52;100.00
34243;BME280;20504;43.214;27.920;2023-05-03T08:05:50;102797.47;;;21.43;100.00
34243;BME280;20504;43.214;27.920;2023-05-03T08:08:16;102815.22;;;21.22;100.00
34243;BME280;20504;43.214;27.920;2023-05-03T08:10:42;102815.69;;;21.87;100.00
34243;BME280;20504;43.214;27.920;2023-05-03T08:13:08;102796.84;;;21.63;100.00
34243;BME280;20504;43.214;27.920;2023-05-03T08:15:33;102778.03;;;21.62;100.00
34243;BME280;20504;43.214;27.920;2023-05-03T08:17:59;102773.88;;;21.58;100.00
34243;BME280;20504;43.214;27.920;2023-05-03T08:20:25;102775.44;;;21.00;100.00
34243;BME280;20504;43.214;27.920;2023-05-03T08:22:52;102737.63;;;21.12;100.00
34243;BME280;20504;43.214;27.920;2023-05-03T08:25:23;102731.19;;;21.39;100.00
34243;BME280;20504;43.214;27.920;2023-05-03T08:27:51;102718.03;;;21.34;100.00
34243;BME280;20504;43.214;27.920;2023-05-03T08:30:17;102740.47;;;21.59;100.00
34243;BME280;20504;43.214;27.920;2023-05-03T08:32:42;102749.59;;;21.69;100.00
34243;BME280;20504;43.214;27.920;2023-05-03T08:35:08;102734.97;;;21.36;100.00
34243;BME280;20504;43.214;27.920;2023-05-03T08:37:38;102732.81;;;21.41;100.00
34243;BME280;20504;43.214;27.920;2023-05-03T08:40:05;102725.97;;;21.25;100.00
34243;BME280;20504;43.214;27.920;2023-05-03T08:42:31;102718.34;;;21.06;100.00
34243;BME280;20504;43.214;27.920;2023-05-03T08:44:58;102695.72;;;20.59;100.00
34243;BME280;20504;43.214;27.920;2023-05-03T08:47:24;102693.00;;;20.72;100.00
34243;BME280;20504;43.214;27.920;2023-05-03T08:49:52;102683.59;;;20.77;100.00
34243;BME280;20504;43.214;27.920;2023-05-03T08:52:18;102681.31;;;20.84;100.00
34243;BME280;20504;43.214;27.920;2023-05-03T08:54:45;102679.53;;;20.96;100.00
34243;BME280;20504;43.214;27.920;2023-05-03T08:57:14;102709.09;;;20.97;100.00
34243;BME280;20504;43.214;27.920;2023-05-03T08:59:51;102707.13;;;20.99;100.00
34243;BME280;20504;43.214;27.920;2023-05-03T09:02:23;102702.41;;;21.03;100.00
34243;BME280;20504;43.214;27.920;2023-05-03T09:04:48;102701.25;;;21.42;100.00
34243;BME280;20504;43.214;27.920;2023-05-03T09:07:14;102707.22;;;21.69;100.00
34243;BME280;20504;43.214;27.920;2023-05-03T09:09:45;102730.03;;;22.00;100.00
34243;BME280;20504;43.214;27.920;2023-05-03T09:12:10;102759.72;;;21.89;100.00
34243;BME280;20504;43.214;27.920;2023-05-03T09:14:44;102762.22;;;22.03;100.00
34243;BME280;20504;43.214;27.920;2023-05-03T09:17:14;102775.66;;;21.81;100.00
34243;BME280;20504;43.214;27.920;2023-05-03T09:19:51;102771.13;;;21.82;100.00
34243;BME280;20504;43.214;27.920;2023-05-03T09:22:17;102769.53;;;22.25;100.00
34243;BME280;20504;43.214;27.920;2023-05-03T09:24:57;102773.00;;;22.72;100.00
34243;BME280;20504;43.214;27.920;2023-05-03T09:27:24;102787.66;;;22.70;100.00
34243;BME280;20504;43.214;27.920;2023-05-03T09:29:51;102793.88;;;23.04;100.00
34243;BME280;20504;43.214;27.920;2023-05-03T09:32:17;102831.94;;;22.91;100.00
34243;BME280;20504;43.214;27.920;2023-05-03T09:34:44;102890.19;;;22.26;100.00
34243;BME280;20504;43.214;27.920;2023-05-03T09:37:10;102857.56;;;22.63;100.00
34243;BME280;20504;43.214;27.920;2023-05-03T09:39:39;102847.84;;;22.49;100.00
34243;BME280;20504;43.214;27.920;2023-05-03T09:42:15;102843.66;;;22.45;100.00
34243;BME280;20504;43.214;27.920;2023-05-03T09:44:48;102832.38;;;22.62;100.00
34243;BME280;20504;43.214;27.920;2023-05-03T09:47:16;102842.44;;;22.49;100.00
34243;BME280;20504;43.214;27.920;2023-05-03T09:49:43;102817.16;;;22.95;100.00
34243;BME280;20504;43.214;27.920;2023-05-03T09:52:09;102833.63;;;23.14;100.00
34243;BME280;20504;43.214;27.920;2023-05-03T09:54:36;102849.63;;;22.95;100.00
34243;BME280;20504;43.214;27.920;2023-05-03T09:57:06;102871.16;;;22.96;100.00
34243;BME280;20504;43.214;27.920;2023-05-03T09:59:33;102826.34;;;22.81;100.00
34243;BME280;20504;43.214;27.920;2023-05-03T10:02:01;102816.63;;;23.23;100.00
34243;BME280;20504;43.214;27.920;2023-05-03T10:04:28;102718.94;;;23.26;100.00
34243;BME280;20504;43.214;27.920;2023-05-03T10:07:03;102559.81;;;23.40;100.00
34243;BME280;20504;43.214;27.920;2023-05-03T10:09:38;102275.53;;;23.30;100.00
34243;BME280;20504;43.214;27.920;2023-05-03T10:12:08;102054.28;;;23.79;100.00
34243;BME280;20504;43.214;27.920;2023-05-03T10:14:34;101783.53;;;23.95;100.00
34243;BME280;20504;43.214;27.920;2023-05-03T10:17:07;101492.19;;;24.09;100.00
34243;BME280;20504;43.214;27.920;2023-05-03T10:22:21;101103.03;;;23.59;100.00
34243;BME280;20504;43.214;27.920;2023-05-03T10:27:21;101034.69;;;23.65;100.00
34243;BME280;20504;43.214;27.920;2023-05-03T10:29:47;100535.09;;;23.23;100.00
34243;BME280;20504;43.214;27.920;2023-05-03T10:32:28;100818.00;;;23.81;100.00
34243;BME280;20504;43.214;27.920;2023-05-03T10:37:26;100967.59;;;24.39;100.00
34243;BME280;20504;43.214;27.920;2023-05-03T10:39:53;101200.03;;;24.92;100.00
34243;BME280;20504;43.214;27.920;2023-05-03T10:42:21;100791.84;;;24.80;100.00
34243;BME280;20504;43.214;27.920;2023-05-03T10:44:52;100328.97;;;24.66;100.00
34243;BME280;20504;43.214;27.920;2023-05-03T10:47:20;99932.31;;;24.65;100.00
34243;BME280;20504;43.214;27.920;2023-05-03T10:55:11;99012.56;;;24.22;100.00
34243;BME280;20504;43.214;27.920;2023-05-03T10:57:40;98723.84;;;23.72;100.00
34243;BME280;20504;43.214;27.920;2023-05-03T11:03:48;98648.31;;;22.73;100.00
34243;BME280;20504;43.214;27.920;2023-05-03T11:09:01;99896.84;;;22.94;100.00
34243;BME280;20504;43.214;27.920;2023-05-03T11:11:27;100108.22;;;22.83;100.00
34243;BME280;20504;43.214;27.920;2023-05-03T11:13:53;100404.03;;;23.11;100.00
34243;BME280;20504;43.214;27.920;2023-05-03T11:16:19;100485.53;;;23.08;100.00
34243;BME280;20504;43.214;27.920;2023-05-03T11:18:45;100482.94;;;23.15;100.00
34243;BME280;20504;43.214;27.920;2023-05-03T11:21:13;100196.97;;;22.94;100.00
34243;BME280;20504;43.214;27.920;2023-05-03T11:23:40;99998.31;;;22.75;100.00
34243;BME280;20504;43.214;27.920;2023-05-03T11:26:06;99863.81;;;22.56;100.00
34243;BME280;20504;43.214;27.920;2023-05-03T11:28:32;99782.00;;;22.47;100.00
34243;BME280;20504;43.214;27.920;2023-05-03T11:30:57;99554.19;;;22.05;100.00
34243;BME280;20504;43.214;27.920;2023-05-03T11:33:23;99774.34;;;22.29;100.00
34243;BME280;20504;43.214;27.920;2023-05-03T11:35:48;99575.19;;;22.10;100.00
34243;BME280;20504;43.214;27.920;2023-05-03T11:38:14;99332.19;;;21.69;100.00
34243;BME280;20504;43.214;27.920;2023-05-03T11:40:40;99929.16;;;22.30;100.00
34243;BME280;20504;43.214;27.920;2023-05-03T11:43:05;100159.38;;;22.55;100.00
34243;BME280;20504;43.214;27.920;2023-05-03T11:45:43;100445.19;;;22.76;100.00
34243;BME280;20504;43.214;27.920;2023-05-03T11:48:13;100739.16;;;23.06;100.00
34243;BME280;20504;43.214;27.920;2023-05-03T11:50:47;100687.28;;;22.86;100.00
34243;BME280;20504;43.214;27.920;2023-05-03T11:53:24;100771.28;;;22.85;100.00
34243;BME280;20504;43.214;27.920;2023-05-03T11:55:52;100772.47;;;22.74;100.00
34243;BME280;20504;43.214;27.920;2023-05-03T11:58:25;100459.78;;;22.35;100.00
34243;BME280;20504;43.214;27.920;2023-05-03T12:00:55;100677.75;;;22.51;100.00
34243;BME280;20504;43.214;27.920;2023-05-03T12:03:26;100898.38;;;22.69;100.00
34243;BME280;20504;43.214;27.920;2023-05-03T12:05:53;101121.88;;;22.94;100.00
34243;BME280;20504;43.214;27.920;2023-05-03T12:08:19;101877.78;;;24.01;100.00
34243;BME280;20504;43.214;27.920;2023-05-03T12:10:46;103057.28;;;26.15;100.00
34243;BME280;20504;43.214;27.920;2023-05-03T12:13:12;102958.66;;;26.61;100.00
34243;BME280;20504;43.214;27.920;2023-05-03T12:15:38;101936.63;;;25.24;100.00
34243;BME280;20504;43.214;27.920;2023-05-03T12:18:10;101982.19;;;25.30;100.00
34243;BME280;20504;43.214;27.920;2023-05-03T12:20:37;101612.44;;;24.84;100.00
34243;BME280;20504;43.214;27.920;2023-05-03T12:23:06;101923.22;;;25.22;100.00
34243;BME280;20504;43.214;27.920;2023-05-03T12:25:33;101291.31;;;24.12;100.00
34243;BME280;20504;43.214;27.920;2023-05-03T12:28:02;101535.16;;;24.30;100.00
34243;BME280;20504;43.214;27.920;2023-05-03T12:30:27;102390.69;;;25.45;100.00
34243;BME280;20504;43.214;27.920;2023-05-03T12:32:53;103551.91;;;27.56;100.00
34243;BME280;20504;43.214;27.920;2023-05-03T12:35:20;103411.19;;;28.03;100.00
34243;BME280;20504;43.214;27.920;2023-05-03T12:37:47;103148.06;;;27.88;100.00
34243;BME280;20504;43.214;27.920;2023-05-03T12:40:13;102936.09;;;27.90;100.00
34243;BME280;20504;43.214;27.920;2023-05-03T12:42:39;103513.16;;;28.89;100.00
34243;BME280;20504;43.214;27.920;2023-05-03T12:45:06;103167.03;;;28.72;100.00
34243;BME280;20504;43.214;27.920;2023-05-03T12:47:32;103384.13;;;29.68;100.00
34243;BME280;20504;43.214;27.920;2023-05-03T12:49:57;103214.44;;;30.29;100.00
34243;BME280;20504;43.214;27.920;2023-05-03T12:52:23;102722.09;;;30.65;100.00
34243;BME280;20504;43.214;27.920;2023-05-03T12:54:49;102525.34;;;31.15;100.00
34243;BME280;20504;43.214;27.920;2023-05-03T12:57:15;101550.59;;;30.28;100.00
34243;BME280;20504;43.214;27.920;2023-05-03T12:59:41;102003.38;;;31.11;100.00